Racecast

Mariah Gonzales

Fresno Flyers Track Club (CA) · 12 · Compare head to head

Athlete rating
Races 41
Seasons 4 2015 — 2025
Speed rating — all races

Track & Field

TF speed rating

2025 TF

Fresno Flyers Track Club (CA) · Grade 12

Date Meet Event Result Place Rating Difficulty PR/SR Flags
2025-07-19 Youth T&F California State Games 200m 30.8 18th · 1st on team -0.033
2025-07-19 Youth T&F California State Games 100m 14.78 28th · 1st on team -0.033
2025-06-26 West Coast National Championship 200m 31.5 60th · 1st on team -0.007
2025-06-26 West Coast National Championship 100m 14.85 49th · 1st on team -0.007
2025-04-23 Clovis West @ Clovis 100m 14.14 17th · 7th on team -0.019 ★PR SR
2025-04-23 Clovis West @ Clovis 200m 29.25 15th · 6th on team -0.019 ★PR SR
2025-04-09 Clovis High vs Buchanan 200m 29.54 28th · 4th on team -0.043 PR SR
2025-04-09 Clovis High vs Buchanan 100m 14.45 26th · 2nd on team -0.043
2025-03-26 Clovis North vs Clovis High Dual 100m 14.2 9th · 5th on team -0.030 PR SR
2025-03-26 Clovis North vs Clovis High Dual 200m 30.49 10th · 8th on team -0.030 PR SR
2025-03-12 Buchanan, Clovis East @ Clovis 400m 1:12.81 19th · 2nd on team -0.019 ★PR SR

2024 TF

Fresno Flyers Track Club (CA) · Grade 11

Date Meet Event Result Place Rating Difficulty PR/SR Flags
2024-07-07 USATF Region 14 Junior Olympic Championships 100mh 22.15 7th · 1st on team -0.031
2024-07-07 USATF Region 14 Junior Olympic Championships 100m 14.47 18th · 1st on team -0.031
2024-06-22 USATF Central California Association Junior Olympic Championships 100m 14.53 6th · 2nd on team -0.019
2024-06-22 USATF Central California Association Junior Olympic Championships 100mh 20.61 3rd · 1st on team -0.019
2024-06-15 AAU Region 22 Qualifier 100mh 20.76 6th · 1st on team -0.030
2024-06-15 AAU Region 22 Qualifier 200m 30.7 10th · 1st on team -0.030 PR SR
2024-04-17 Clovis North & Clovis West @ Clovis 100m 14.22 28th · 10th on team -0.019 PR SR
2024-04-03 Clovis East and Clovis Dual Meet 100mh 20.16 6th · 2nd on team -0.036 ★PR SR
2024-04-03 Clovis East and Clovis Dual Meet 300mh 58.54 8th · 6th on team -0.036
2024-03-20 Clovis North @ Clovis 300mh 56.78 6th · 3rd on team -0.019 ★PR SR
2024-03-20 Clovis North @ Clovis 100m 14.5 16th · 9th on team -0.019 PR SR
2024-03-06 Clovis High vs Buchanan 200m 30.92 26th · 7th on team -0.043 PR SR
2024-03-06 Clovis High vs Buchanan 100mh 22.19 8th · 4th on team -0.043 PR SR
2024-02-28 Central @ Clovis 100m 14.73 11th · 8th on team -0.019 PR SR
2024-02-24 Bobbie Bass Sprint Carnival 300mh 59.96 11th · 4th on team -0.019 PR SR
2024-02-16 Cougar Intra Squad 250m 39.68 10th · 10th on team -0.019 ★PR SR
2024-02-16 Cougar Intra Squad 60m 9.21 15th · 15th on team -0.019 ★PR SR

2016 TF

Jets Track & Field Club (CA) · Grade -

Date Meet Event Result Place Rating Difficulty PR/SR Flags
2016-07-09 Panther's Classic Meet 200m 39.08 14th · 5th on team -0.027
2016-07-09 Panther's Classic Meet 400m 1:30.94 6th · 2nd on team -0.027
2016-07-09 Panther's Classic Meet 100m 16.75 11th · 4th on team -0.027 PR SR
2016-03-12 Merced Bridging The Gap Youth Track & Field Meet 200m 37.97 6th · 2nd on team -0.025 PR SR
2016-03-12 Merced Bridging The Gap Youth Track & Field Meet 400m 1:28.6 17th · 4th on team -0.025 PR SR
2016-03-12 Merced Bridging The Gap Youth Track & Field Meet 100m 17.03 22nd · 6th on team -0.025 PR SR

2015 TF

Jets Track & Field Club (CA) · Grade -

Date Meet Event Result Place Rating Difficulty PR/SR Flags
2015-07-19 California State Games 400m 1:35.17 14th · 2nd on team -0.029 PR SR
2015-07-19 California State Games 100m 18.28 28th · 3rd on team -0.029
2015-03-28 Contra Costa Cheetahs lj 1.62m -0.017
2015-03-28 Contra Costa Cheetahs 200m 41.25 31st · 2nd on team -0.017 PR SR
2015-03-28 Contra Costa Cheetahs 100m 18.04 20th · 2nd on team -0.017 PR SR
2015-03-21 RPM Legacy 400m 1:42.83 45th · 2nd on team -0.020 PR SR
2015-03-21 RPM Legacy 100m 18.55 33rd · 2nd on team -0.020 PR SR